Cincinnati, Ohio
Traffic Map
Current Weather Conditions
Cincinnati, Ohio
Overcast Light Fog
Overcast
47°
Feels Like: 47°
Wind Chill: 47° Ceiling: 700
Heat Index: 47° Visibility: 10mi
Dew Point: 47° Wind: 0mph
Humidity: 100% Direction: ° ()
Pressure: 30.03in Gusts: 0mph
Raw Report DataKLUK 011200Z 00000KT 10SM BCFG OVC007 08/08 A3003 RMK AO2 T00830083
Traffic Incident Summary
Active as of:
Severity:
Category:
InformationThere was an issue retrieving the traffic information for this location. Please try a different location or try again shortly.
Advertisements
Track Severe Weather on mobile